Time;durP1;ratioP1;P1;durP2;ratioP2;P2;SDS_P1;SDS_P2;PMS_P1;PMS_P2;Temp;Humidity;BMP_temperature;BMP_pressure;BME280_temperature;BME280_humidity;BME280_pressure;Samples;Min_cycle;Max_cycle;Signal;HPM_P1;HPM_P2
2023/06/28 00:02:24;;;;;;;11.27;4.00;;;;;;;;;;4923166;29;20455;-78
2023/06/28 00:04:51;;;;;;;7.70;4.00;;;;;;;;;;4956271;28;20463;-78
2023/06/28 00:07:17;;;;;;;9.40;4.10;;;;;;;;;;4963089;28;20426;-79
2023/06/28 00:09:43;;;;;;;9.20;4.10;;;;;;;;;;4924392;28;20975;-79
2023/06/28 00:12:09;;;;;;;11.77;4.57;;;;;;;;;;4938929;28;20424;-79
2023/06/28 00:14:35;;;;;;;5.77;4.17;;;;;;;;;;4939488;28;20578;-79
2023/06/28 00:17:01;;;;;;;8.80;4.00;;;;;;;;;;4939158;28;20491;-79
2023/06/28 00:19:27;;;;;;;5.63;4.27;;;;;;;;;;4949919;28;20428;-79
2023/06/28 00:21:57;;;;;;;7.30;3.80;;;;;;;;;;4961293;28;20447;-79
2023/06/28 00:24:23;;;;;;;8.47;3.47;;;;;;;;;;4939300;29;20454;-78
2023/06/28 00:26:49;;;;;;;5.33;3.60;;;;;;;;;;4938817;28;20987;-79
2023/06/28 00:29:15;;;;;;;7.57;4.13;;;;;;;;;;4955705;28;20766;-79
2023/06/28 00:31:41;;;;;;;7.30;4.43;;;;;;;;;;4955102;28;20424;-79
2023/06/28 00:34:07;;;;;;;7.40;4.30;;;;;;;;;;4951520;28;20984;-79
2023/06/28 00:36:33;;;;;;;9.70;4.60;;;;;;;;;;4944439;28;20440;-79
2023/06/28 00:38:59;;;;;;;13.47;5.13;;;;;;;;;;4954716;28;20436;-79
2023/06/28 00:41:25;;;;;;;8.37;4.07;;;;;;;;;;4938277;28;20459;-79
2023/06/28 00:43:50;;;;;;;7.00;3.93;;;;;;;;;;4925515;28;20418;-79
2023/06/28 00:46:16;;;;;;;9.37;4.60;;;;;;;;;;4959689;28;20909;-79
2023/06/28 00:48:42;;;;;;;8.87;4.87;;;;;;;;;;4942287;28;20428;-79
2023/06/28 00:51:10;;;;;;;10.63;4.37;;;;;;;;;;4959398;28;20439;-79
2023/06/28 00:53:36;;;;;;;4.90;4.40;;;;;;;;;;4917262;28;1152378;-79
2023/06/28 00:56:02;;;;;;;8.87;4.50;;;;;;;;;;4938369;28;20189;-80
2023/06/28 00:58:28;;;;;;;5.33;3.83;;;;;;;;;;4928925;29;20422;-79
2023/06/28 01:00:54;;;;;;;8.67;5.00;;;;;;;;;;4961374;28;20481;-79
2023/06/28 01:03:20;;;;;;;11.50;4.60;;;;;;;;;;4942955;29;20439;-79
2023/06/28 01:05:49;;;;;;;7.43;4.60;;;;;;;;;;4926821;28;20468;-79
2023/06/28 01:08:16;;;;;;;11.70;4.37;;;;;;;;;;4960772;28;20436;-79
2023/06/28 01:10:42;;;;;;;10.40;4.80;;;;;;;;;;4945457;28;20440;-79
2023/06/28 01:13:09;;;;;;;7.63;4.87;;;;;;;;;;4961858;28;20433;-79
2023/06/28 01:15:35;;;;;;;7.70;4.70;;;;;;;;;;4959956;28;20786;-79
2023/06/28 01:18:01;;;;;;;5.20;4.57;;;;;;;;;;4942108;29;20440;-79
2023/06/28 01:20:30;;;;;;;10.43;5.03;;;;;;;;;;4942471;29;20413;-80
2023/06/28 01:22:56;;;;;;;13.23;5.63;;;;;;;;;;4950477;28;20407;-80
2023/06/28 01:25:22;;;;;;;9.73;4.90;;;;;;;;;;4928860;28;20474;-79
2023/06/28 01:27:49;;;;;;;10.70;5.10;;;;;;;;;;4943909;28;21005;-80
2023/06/28 01:30:15;;;;;;;7.60;4.73;;;;;;;;;;4948698;28;20939;-79
2023/06/28 01:32:43;;;;;;;12.10;4.50;;;;;;;;;;4942174;28;20428;-80
2023/06/28 01:35:10;;;;;;;7.20;4.50;;;;;;;;;;4958717;28;20747;-80
2023/06/28 01:37:37;;;;;;;6.70;5.10;;;;;;;;;;4958548;28;20438;-80
2023/06/28 01:40:04;;;;;;;9.23;3.93;;;;;;;;;;4959818;28;20405;-80
2023/06/28 01:42:30;;;;;;;8.90;4.53;;;;;;;;;;4942410;28;20464;-79
2023/06/28 01:44:56;;;;;;;5.80;4.30;;;;;;;;;;4941926;29;20991;-79
2023/06/28 01:47:22;;;;;;;5.83;4.53;;;;;;;;;;4958893;28;20491;-79
2023/06/28 01:49:48;;;;;;;4.87;3.90;;;;;;;;;;4959797;28;20435;-80
2023/06/28 01:52:15;;;;;;;6.93;4.63;;;;;;;;;;4958931;28;20436;-79
2023/06/28 01:54:41;;;;;;;7.10;4.13;;;;;;;;;;4925227;29;20810;-80
2023/06/28 01:57:07;;;;;;;5.67;4.30;;;;;;;;;;4941680;29;20444;-79
2023/06/28 01:59:32;;;;;;;7.00;4.47;;;;;;;;;;4941598;28;20479;-80
2023/06/28 02:01:59;;;;;;;13.93;5.40;;;;;;;;;;4927653;29;20412;-79
2023/06/28 02:04:25;;;;;;;6.50;4.23;;;;;;;;;;4943665;29;20396;-79
2023/06/28 02:06:51;;;;;;;7.53;4.37;;;;;;;;;;4957760;28;20843;-79
2023/06/28 02:09:17;;;;;;;7.43;4.30;;;;;;;;;;4946754;29;20436;-79
2023/06/28 02:11:43;;;;;;;7.70;4.87;;;;;;;;;;4925178;29;20403;-79
2023/06/28 02:14:09;;;;;;;8.43;5.07;;;;;;;;;;4958369;28;20859;-79
2023/06/28 02:16:35;;;;;;;12.27;4.53;;;;;;;;;;4941769;28;20410;-79
2023/06/28 02:19:02;;;;;;;5.93;4.30;;;;;;;;;;4937960;28;20454;-79
2023/06/28 02:21:28;;;;;;;8.10;4.57;;;;;;;;;;4958351;28;20432;-79
2023/06/28 02:23:54;;;;;;;6.00;4.73;;;;;;;;;;4942091;28;20448;-79
2023/06/28 02:26:20;;;;;;;10.83;4.07;;;;;;;;;;4941416;29;20911;-79
2023/06/28 02:28:46;;;;;;;7.60;5.37;;;;;;;;;;4957784;28;20399;-79
2023/06/28 02:31:12;;;;;;;10.03;4.83;;;;;;;;;;4957504;28;20431;-79
2023/06/28 02:33:38;;;;;;;10.50;4.90;;;;;;;;;;4941042;29;20446;-80
2023/06/28 02:36:04;;;;;;;8.03;5.63;;;;;;;;;;4927508;29;20459;-80
2023/06/28 02:38:30;;;;;;;7.83;5.10;;;;;;;;;;4924813;29;20910;-80
2023/06/28 02:40:56;;;;;;;10.90;5.03;;;;;;;;;;4958058;28;20523;-79
2023/06/28 02:43:22;;;;;;;10.87;4.70;;;;;;;;;;4940650;29;20399;-79
2023/06/28 02:45:48;;;;;;;10.80;5.20;;;;;;;;;;4958468;28;20480;-79
2023/06/28 02:48:14;;;;;;;12.57;5.30;;;;;;;;;;4944164;29;20436;-79
2023/06/28 02:50:40;;;;;;;8.07;4.67;;;;;;;;;;4925362;28;20447;-79
2023/06/28 02:53:06;;;;;;;7.30;4.60;;;;;;;;;;4941094;29;20751;-81
2023/06/28 02:55:32;;;;;;;8.17;5.37;;;;;;;;;;4941124;28;20429;-80
2023/06/28 02:57:58;;;;;;;7.10;5.00;;;;;;;;;;4924430;29;20403;-79
2023/06/28 03:00:24;;;;;;;7.70;5.37;;;;;;;;;;4940605;29;20498;-79
2023/06/28 03:02:50;;;;;;;7.17;4.80;;;;;;;;;;4940660;28;20432;-79
2023/06/28 03:05:16;;;;;;;6.00;4.17;;;;;;;;;;4939567;29;20817;-79
2023/06/28 03:07:42;;;;;;;9.03;5.50;;;;;;;;;;4924248;29;20447;-79
2023/06/28 03:10:08;;;;;;;9.10;4.53;;;;;;;;;;4948018;29;20432;-79
2023/06/28 03:12:34;;;;;;;7.97;5.07;;;;;;;;;;4956560;28;21048;-79
2023/06/28 03:15:01;;;;;;;6.93;4.33;;;;;;;;;;4957730;28;20444;-80
2023/06/28 03:17:27;;;;;;;6.30;4.63;;;;;;;;;;4957268;28;20409;-79
2023/06/28 03:19:53;;;;;;;10.20;5.07;;;;;;;;;;4957668;28;20419;-80
2023/06/28 03:22:19;;;;;;;8.00;4.73;;;;;;;;;;4940641;29;20424;-79
2023/06/28 03:24:45;;;;;;;8.63;5.37;;;;;;;;;;4956378;28;20432;-79
2023/06/28 03:27:11;;;;;;;8.57;4.57;;;;;;;;;;4956882;28;20423;-79
2023/06/28 03:29:37;;;;;;;8.60;4.77;;;;;;;;;;4940371;28;20415;-79
2023/06/28 03:32:03;;;;;;;7.83;4.57;;;;;;;;;;4923466;29;20519;-79
2023/06/28 03:34:29;;;;;;;9.90;4.73;;;;;;;;;;4928248;29;20856;-79
2023/06/28 03:36:55;;;;;;;6.20;4.27;;;;;;;;;;4923793;28;20494;-79
2023/06/28 03:39:21;;;;;;;6.60;4.73;;;;;;;;;;4957000;28;20471;-79
2023/06/28 03:41:47;;;;;;;12.90;4.87;;;;;;;;;;4940385;28;20446;-79
2023/06/28 03:44:14;;;;;;;9.70;4.80;;;;;;;;;;4923683;29;20475;-80
2023/06/28 03:46:40;;;;;;;9.07;4.47;;;;;;;;;;4944058;28;20522;-79
2023/06/28 03:49:06;;;;;;;10.07;4.77;;;;;;;;;;4956566;28;20778;-78
2023/06/28 03:51:32;;;;;;;8.83;4.63;;;;;;;;;;4941770;29;20436;-79
2023/06/28 03:53:58;;;;;;;11.73;5.07;;;;;;;;;;4953028;28;20472;-79
2023/06/28 03:56:24;;;;;;;10.73;4.37;;;;;;;;;;4956471;28;20786;-79
2023/06/28 03:58:50;;;;;;;10.30;4.80;;;;;;;;;;4924185;28;20566;-78
2023/06/28 04:01:18;;;;;;;8.93;4.67;;;;;;;;;;4939450;29;20432;-79
2023/06/28 04:03:44;;;;;;;18.63;5.30;;;;;;;;;;4939828;28;20828;-78
2023/06/28 04:06:10;;;;;;;8.40;4.50;;;;;;;;;;4946180;29;20491;-78
2023/06/28 04:08:36;;;;;;;9.80;5.17;;;;;;;;;;4956343;28;20794;-78
2023/06/28 04:11:02;;;;;;;11.27;5.07;;;;;;;;;;4955659;28;20437;-78
2023/06/28 04:13:28;;;;;;;6.63;5.17;;;;;;;;;;4956516;28;20405;-78
2023/06/28 04:15:55;;;;;;;8.00;4.47;;;;;;;;;;4940553;28;20410;-78
2023/06/28 04:18:21;;;;;;;6.43;4.70;;;;;;;;;;4956707;28;20491;-77
2023/06/28 04:20:47;;;;;;;7.73;4.70;;;;;;;;;;4939866;28;20444;-77
2023/06/28 04:23:13;;;;;;;6.70;4.33;;;;;;;;;;4939453;29;20411;-78
2023/06/28 04:25:39;;;;;;;5.23;4.63;;;;;;;;;;4943705;28;20768;-78
2023/06/28 04:28:05;;;;;;;9.53;5.67;;;;;;;;;;4939655;29;20447;-78
2023/06/28 04:30:31;;;;;;;11.67;6.10;;;;;;;;;;4938691;29;20429;-78
2023/06/28 04:32:57;;;;;;;15.03;5.43;;;;;;;;;;4957031;28;20409;-77
2023/06/28 04:35:23;;;;;;;8.07;4.43;;;;;;;;;;4941016;29;20435;-78
2023/06/28 04:37:50;;;;;;;7.53;4.93;;;;;;;;;;4937717;28;20423;-78
2023/06/28 04:40:16;;;;;;;11.67;5.17;;;;;;;;;;4956290;28;20443;-77
2023/06/28 04:42:42;;;;;;;5.73;4.70;;;;;;;;;;4956714;28;20439;-78
2023/06/28 04:45:09;;;;;;;7.70;4.60;;;;;;;;;;4956262;28;20450;-77
2023/06/28 04:47:36;;;;;;;7.20;4.73;;;;;;;;;;4939640;29;20459;-77
2023/06/28 04:50:05;;;;;;;7.50;4.97;;;;;;;;;;4923689;29;20963;-77
2023/06/28 04:52:31;;;;;;;11.97;5.33;;;;;;;;;;4955122;28;20437;-77
2023/06/28 04:54:57;;;;;;;6.37;5.30;;;;;;;;;;4935547;29;20810;-79
2023/06/28 04:57:23;;;;;;;8.70;4.80;;;;;;;;;;4939352;29;20400;-78
2023/06/28 04:59:49;;;;;;;6.40;4.80;;;;;;;;;;4955413;28;20484;-77
2023/06/28 05:02:15;;;;;;;5.97;4.70;;;;;;;;;;4939125;29;20432;-77
2023/06/28 05:04:41;;;;;;;8.73;4.83;;;;;;;;;;4954665;28;20428;-77
2023/06/28 05:07:09;;;;;;;8.50;5.10;;;;;;;;;;4938964;28;21019;-78
2023/06/28 05:09:35;;;;;;;11.10;6.00;;;;;;;;;;4939313;28;20521;-77
2023/06/28 05:12:02;;;;;;;6.07;5.20;;;;;;;;;;4939010;29;20414;-78
2023/06/28 05:14:29;;;;;;;11.73;5.53;;;;;;;;;;4938911;29;20491;-77
2023/06/28 05:16:55;;;;;;;12.70;5.93;;;;;;;;;;4955685;28;20441;-77
2023/06/28 05:19:22;;;;;;;11.50;5.60;;;;;;;;;;4955232;28;20419;-77
2023/06/28 05:21:48;;;;;;;14.73;5.70;;;;;;;;;;4956077;28;20868;-77
2023/06/28 05:24:15;;;;;;;12.23;6.20;;;;;;;;;;4942161;29;20599;-77
2023/06/28 05:26:42;;;;;;;10.97;5.70;;;;;;;;;;4955815;28;20464;-79
2023/06/28 05:29:08;;;;;;;7.50;5.97;;;;;;;;;;4940159;29;20489;-77
2023/06/28 05:31:34;;;;;;;10.20;7.20;;;;;;;;;;4941645;28;20411;-77
2023/06/28 05:34:00;;;;;;;8.97;5.80;;;;;;;;;;4934690;29;20487;-77
2023/06/28 05:36:26;;;;;;;15.37;6.60;;;;;;;;;;4948597;29;20410;-77
2023/06/28 05:38:52;;;;;;;7.90;5.37;;;;;;;;;;4942740;28;20431;-77
2023/06/28 05:41:18;;;;;;;11.17;6.13;;;;;;;;;;4959285;28;20419;-79
2023/06/28 05:43:45;;;;;;;6.00;5.20;;;;;;;;;;4960179;28;20409;-77
2023/06/28 05:46:11;;;;;;;11.30;6.23;;;;;;;;;;4942144;28;20506;-77
2023/06/28 05:48:38;;;;;;;10.77;6.57;;;;;;;;;;4952593;28;20496;-77
2023/06/28 05:51:09;;;;;;;11.37;6.20;;;;;;;;;;4938118;29;20446;-77
2023/06/28 05:53:37;;;;;;;10.00;5.17;;;;;;;;;;4926115;29;20476;-77
2023/06/28 05:56:03;;;;;;;8.30;5.93;;;;;;;;;;4944109;29;20452;-77
2023/06/28 05:58:29;;;;;;;13.90;6.80;;;;;;;;;;4958571;28;20531;-78
2023/06/28 06:00:55;;;;;;;10.90;5.70;;;;;;;;;;4961479;28;20434;-78
2023/06/28 06:03:21;;;;;;;18.73;6.73;;;;;;;;;;4958904;28;20921;-78
2023/06/28 06:05:47;;;;;;;16.20;5.53;;;;;;;;;;4941421;28;20450;-79
2023/06/28 06:08:13;;;;;;;8.87;5.60;;;;;;;;;;4959024;28;20405;-78
2023/06/28 06:10:39;;;;;;;17.50;6.03;;;;;;;;;;4960586;28;20894;-79
2023/06/28 06:13:05;;;;;;;16.57;7.20;;;;;;;;;;4957659;28;20407;-78
2023/06/28 06:15:31;;;;;;;13.83;6.17;;;;;;;;;;4942514;29;20506;-78
2023/06/28 06:17:57;;;;;;;10.73;5.93;;;;;;;;;;4925568;29;20842;-78
2023/06/28 06:20:23;;;;;;;21.83;7.17;;;;;;;;;;4947877;28;21019;-78
2023/06/28 06:22:50;;;;;;;12.03;6.00;;;;;;;;;;4942356;28;20447;-78
2023/06/28 06:25:16;;;;;;;14.73;6.70;;;;;;;;;;4959042;28;20442;-78
2023/06/28 06:27:42;;;;;;;15.27;6.50;;;;;;;;;;4943065;28;20444;-78
2023/06/28 06:30:10;;;;;;;18.37;6.60;;;;;;;;;;4934278;28;20421;-78
2023/06/28 06:32:36;;;;;;;9.27;6.10;;;;;;;;;;4957626;28;20777;-78
2023/06/28 06:35:02;;;;;;;11.80;7.00;;;;;;;;;;4957600;28;20406;-78
2023/06/28 06:37:28;;;;;;;11.67;6.53;;;;;;;;;;4940681;29;20898;-79
2023/06/28 06:39:54;;;;;;;15.17;6.00;;;;;;;;;;4941467;28;20413;-79
2023/06/28 06:42:20;;;;;;;9.97;5.73;;;;;;;;;;4939783;29;20767;-79
2023/06/28 06:44:46;;;;;;;10.77;5.33;;;;;;;;;;4955645;28;20440;-79
2023/06/28 06:47:13;;;;;;;7.47;5.27;;;;;;;;;;4939330;29;20543;-79
2023/06/28 06:49:41;;;;;;;8.47;4.70;;;;;;;;;;4958513;28;20450;-85
2023/06/28 06:52:07;;;;;;;8.10;4.73;;;;;;;;;;4955904;28;20452;-84
2023/06/28 06:54:33;;;;;;;8.30;5.53;;;;;;;;;;4941529;28;20442;-77
2023/06/28 06:56:59;;;;;;;6.40;4.47;;;;;;;;;;4928097;29;20760;-77
2023/06/28 06:59:26;;;;;;;9.03;4.60;;;;;;;;;;4926279;28;20781;-78
2023/06/28 07:01:52;;;;;;;7.00;4.33;;;;;;;;;;4957296;28;20399;-76
2023/06/28 07:04:19;;;;;;;9.67;4.90;;;;;;;;;;4957267;28;20846;-77
2023/06/28 07:06:46;;;;;;;9.57;5.60;;;;;;;;;;4947401;28;20559;-77
2023/06/28 07:09:13;;;;;;;7.63;4.63;;;;;;;;;;4957070;28;20444;-77
2023/06/28 07:11:39;;;;;;;12.97;5.07;;;;;;;;;;4957359;28;20941;-77
2023/06/28 07:14:05;;;;;;;15.20;5.10;;;;;;;;;;4957267;28;20437;-76
2023/06/28 07:16:31;;;;;;;6.50;4.00;;;;;;;;;;4941874;28;20501;-76
2023/06/28 07:18:57;;;;;;;9.87;4.97;;;;;;;;;;4960381;28;20776;-76
2023/06/28 07:21:23;;;;;;;10.83;4.50;;;;;;;;;;4940855;29;20407;-76
2023/06/28 07:23:49;;;;;;;12.17;4.83;;;;;;;;;;4940466;28;20442;-76
2023/06/28 07:26:15;;;;;;;13.20;5.13;;;;;;;;;;4940463;29;20563;-77
2023/06/28 07:28:41;;;;;;;9.30;5.20;;;;;;;;;;4957386;28;20443;-76
2023/06/28 07:31:07;;;;;;;11.60;5.10;;;;;;;;;;4957422;28;20777;-76
2023/06/28 07:33:34;;;;;;;9.03;5.00;;;;;;;;;;4944383;29;20478;-77
2023/06/28 07:36:00;;;;;;;11.37;5.00;;;;;;;;;;4940425;29;20446;-76
2023/06/28 07:38:26;;;;;;;12.93;5.13;;;;;;;;;;4955215;28;20411;-77
2023/06/28 07:40:53;;;;;;;11.73;6.57;;;;;;;;;;4956020;28;20990;-77
2023/06/28 07:43:19;;;;;;;11.50;4.90;;;;;;;;;;4956857;28;20438;-78
2023/06/28 07:45:45;;;;;;;9.60;4.40;;;;;;;;;;4950097;28;20946;-77
2023/06/28 07:48:11;;;;;;;8.73;4.10;;;;;;;;;;4929899;29;20419;-77
2023/06/28 07:50:37;;;;;;;18.90;4.90;;;;;;;;;;4943468;28;20448;-77
2023/06/28 07:53:04;;;;;;;14.87;4.83;;;;;;;;;;4938344;29;20443;-79
2023/06/28 07:55:30;;;;;;;15.13;4.40;;;;;;;;;;4939320;28;20441;-79
2023/06/28 07:57:57;;;;;;;7.63;3.57;;;;;;;;;;4923437;28;20443;-78
2023/06/28 08:00:23;;;;;;;7.10;4.00;;;;;;;;;;4939579;29;20411;-78
2023/06/28 08:02:49;;;;;;;10.73;4.43;;;;;;;;;;4923559;28;20824;-78
2023/06/28 08:05:15;;;;;;;10.70;3.90;;;;;;;;;;4960420;28;20446;-80
2023/06/28 08:07:41;;;;;;;8.90;4.10;;;;;;;;;;4923325;28;20399;-79
2023/06/28 08:10:07;;;;;;;10.73;4.30;;;;;;;;;;4938774;29;20914;-80
2023/06/28 08:12:33;;;;;;;10.40;5.70;;;;;;;;;;4955682;28;20444;-81
2023/06/28 08:14:59;;;;;;;14.03;5.80;;;;;;;;;;4938806;29;20415;-79
2023/06/28 08:17:26;;;;;;;12.97;6.50;;;;;;;;;;4938715;29;20412;-80
2023/06/28 08:19:54;;;;;;;15.20;5.37;;;;;;;;;;4938915;28;20501;-79
2023/06/28 08:22:20;;;;;;;7.87;4.43;;;;;;;;;;4922877;29;20531;-80
2023/06/28 08:24:45;;;;;;;15.30;5.70;;;;;;;;;;4954185;28;20507;-79
2023/06/28 08:27:12;;;;;;;10.33;5.60;;;;;;;;;;4922760;29;20446;-79
2023/06/28 08:29:37;;;;;;;5.90;4.33;;;;;;;;;;4956456;28;20450;-79
2023/06/28 08:32:04;;;;;;;13.60;5.17;;;;;;;;;;4938575;29;20402;-80
2023/06/28 08:34:30;;;;;;;8.27;4.40;;;;;;;;;;4938595;29;20448;-80
2023/06/28 08:36:56;;;;;;;12.17;3.90;;;;;;;;;;4937814;28;20460;-80
2023/06/28 08:39:22;;;;;;;8.93;4.17;;;;;;;;;;4926457;29;20414;-80
2023/06/28 08:41:49;;;;;;;10.57;3.30;;;;;;;;;;4938662;28;20440;-80
2023/06/28 08:44:15;;;;;;;9.50;3.00;;;;;;;;;;4922285;29;20419;-80
2023/06/28 08:46:43;;;;;;;6.03;2.90;;;;;;;;;;4940551;28;20484;-80
2023/06/28 08:49:09;;;;;;;6.67;3.70;;;;;;;;;;4937887;29;20436;-80
2023/06/28 08:51:35;;;;;;;6.70;3.40;;;;;;;;;;4954148;28;20967;-81
2023/06/28 08:54:02;;;;;;;7.80;3.23;;;;;;;;;;4938386;29;20935;-79
2023/06/28 08:56:28;;;;;;;5.23;2.83;;;;;;;;;;4955397;28;20455;-80
2023/06/28 08:58:54;;;;;;;4.33;2.90;;;;;;;;;;4937982;28;20457;-80
2023/06/28 09:01:24;;;;;;;8.03;3.27;;;;;;;;;;4922044;29;20506;-80
2023/06/28 09:03:50;;;;;;;4.83;2.90;;;;;;;;;;4955191;28;20414;-80
2023/06/28 09:06:16;;;;;;;9.37;3.20;;;;;;;;;;4922936;29;20468;-81
2023/06/28 09:08:44;;;;;;;6.13;2.80;;;;;;;;;;4961620;28;20768;-81
2023/06/28 09:11:11;;;;;;;7.67;3.43;;;;;;;;;;4940188;29;20408;-80
2023/06/28 09:13:37;;;;;;;8.63;3.90;;;;;;;;;;4950095;28;20928;-80
2023/06/28 09:16:08;;;;;;;4.57;2.83;;;;;;;;;;4949703;29;20448;-80
2023/06/28 09:18:34;;;;;;;10.27;3.13;;;;;;;;;;4962667;28;20411;-82
2023/06/28 09:21:01;;;;;;;8.20;3.57;;;;;;;;;;4958122;28;20422;-80
2023/06/28 09:23:31;;;;;;;5.17;1.80;;;;;;;;;;4946448;28;20410;-81
2023/06/28 09:25:57;;;;;;;4.60;2.70;;;;;;;;;;4963285;28;20481;-79
2023/06/28 09:28:24;;;;;;;4.13;2.33;;;;;;;;;;4964818;28;20443;-79
2023/06/28 09:30:57;;;;;;;2.33;2.00;;;;;;;;;;4941565;28;20571;-81
2023/06/28 09:33:23;;;;;;;6.60;2.40;;;;;;;;;;4963478;28;20462;-80
2023/06/28 09:35:53;;;;;;;5.83;2.00;;;;;;;;;;4941508;28;20448;-80
2023/06/28 09:38:19;;;;;;;4.30;2.47;;;;;;;;;;4941630;28;20406;-80
2023/06/28 09:40:52;;;;;;;4.10;2.20;;;;;;;;;;4961682;28;20435;-80
2023/06/28 09:43:18;;;;;;;3.67;2.10;;;;;;;;;;4960257;28;20766;-80
2023/06/28 09:45:44;;;;;;;8.83;2.33;;;;;;;;;;4942215;28;20455;-79
2023/06/28 09:48:10;;;;;;;3.30;2.33;;;;;;;;;;4965232;28;20411;-79
2023/06/28 09:50:37;;;;;;;6.70;2.67;;;;;;;;;;4941879;28;20411;-80
2023/06/28 09:53:04;;;;;;;6.20;2.63;;;;;;;;;;4941287;29;20468;-79
2023/06/28 09:55:30;;;;;;;7.57;2.60;;;;;;;;;;4945772;29;20440;-79
2023/06/28 09:57:57;;;;;;;5.83;2.27;;;;;;;;;;4956840;28;20503;-79
2023/06/28 10:00:25;;;;;;;6.27;3.13;;;;;;;;;;4925368;29;20422;-80
2023/06/28 10:02:51;;;;;;;5.43;2.30;;;;;;;;;;4925073;28;20439;-80
2023/06/28 10:05:17;;;;;;;4.00;2.60;;;;;;;;;;4958900;28;20494;-77
2023/06/28 10:07:44;;;;;;;4.23;2.10;;;;;;;;;;4956665;28;20426;-77
2023/06/28 10:10:11;;;;;;;4.57;2.53;;;;;;;;;;4924877;29;20424;-78
2023/06/28 10:12:37;;;;;;;4.97;2.53;;;;;;;;;;4937362;28;20433;-77
2023/06/28 10:15:07;;;;;;;7.33;2.90;;;;;;;;;;4944699;28;20444;-77
2023/06/28 10:17:35;;;;;;;5.00;2.80;;;;;;;;;;4957926;28;20932;-77
2023/06/28 10:20:02;;;;;;;6.40;2.53;;;;;;;;;;4952741;28;20452;-77
2023/06/28 10:22:29;;;;;;;7.30;2.53;;;;;;;;;;4940071;29;20437;-78
2023/06/28 10:24:55;;;;;;;8.87;2.80;;;;;;;;;;4937551;28;20504;-77
2023/06/28 10:27:22;;;;;;;5.87;2.43;;;;;;;;;;4940920;29;20496;-77
2023/06/28 10:29:50;;;;;;;4.17;2.53;;;;;;;;;;4940909;28;20527;-78
2023/06/28 10:32:16;;;;;;;6.27;2.80;;;;;;;;;;4957013;28;20436;-78
2023/06/28 10:34:43;;;;;;;5.73;2.37;;;;;;;;;;4940343;28;20883;-77
2023/06/28 10:37:09;;;;;;;4.57;2.73;;;;;;;;;;4940662;29;20856;-77
2023/06/28 10:39:35;;;;;;;4.40;2.40;;;;;;;;;;4925471;28;20805;-76
2023/06/28 10:42:01;;;;;;;5.40;2.40;;;;;;;;;;4941089;29;20971;-77
2023/06/28 10:44:27;;;;;;;5.33;2.70;;;;;;;;;;4952274;28;20428;-76
2023/06/28 10:47:10;;;;;;;7.63;3.10;;;;;;;;;;4959216;28;20505;-77
2023/06/28 10:49:36;;;;;;;5.70;2.80;;;;;;;;;;4955736;28;20823;-74
2023/06/28 10:52:02;;;;;;;6.93;2.40;;;;;;;;;;4958074;28;20830;-75
2023/06/28 10:54:28;;;;;;;5.37;3.30;;;;;;;;;;4957867;28;20490;-77
2023/06/28 10:56:58;;;;;;;8.17;2.50;;;;;;;;;;4957867;28;20420;-76
2023/06/28 10:59:24;;;;;;;5.77;2.20;;;;;;;;;;4954170;28;20459;-74
2023/06/28 11:01:53;;;;;;;7.57;3.40;;;;;;;;;;4958135;28;20407;-75
2023/06/28 11:04:25;;;;;;;4.87;3.23;;;;;;;;;;4957671;28;20428;-76
2023/06/28 11:07:03;;;;;;;4.13;2.40;;;;;;;;;;4957703;28;20477;-76
2023/06/28 11:09:29;;;;;;;7.20;2.87;;;;;;;;;;4956908;28;20443;-77
2023/06/28 11:11:57;;;;;;;7.83;3.50;;;;;;;;;;4957294;28;20464;-77
2023/06/28 11:14:32;;;;;;;4.60;3.40;;;;;;;;;;4957386;28;20436;-77
2023/06/28 11:17:14;;;;;;;8.47;3.00;;;;;;;;;;4950242;28;20547;-77
2023/06/28 11:19:41;;;;;;;6.60;3.07;;;;;;;;;;4955081;28;20432;-78
2023/06/28 11:22:07;;;;;;;7.30;3.37;;;;;;;;;;4956678;28;20425;-77
2023/06/28 11:24:33;;;;;;;10.53;3.80;;;;;;;;;;4957217;28;20423;-77
2023/06/28 11:27:00;;;;;;;6.40;3.07;;;;;;;;;;4955315;28;20535;-77
2023/06/28 11:29:26;;;;;;;4.00;3.00;;;;;;;;;;4955982;28;20444;-77
2023/06/28 11:31:53;;;;;;;9.03;3.50;;;;;;;;;;4953805;28;20924;-77
2023/06/28 11:34:19;;;;;;;6.40;3.00;;;;;;;;;;4956832;28;20842;-77
2023/06/28 11:36:50;;;;;;;7.13;3.87;;;;;;;;;;4944938;28;20447;-77
2023/06/28 11:39:17;;;;;;;7.33;4.10;;;;;;;;;;4959804;28;20411;-76
2023/06/28 11:41:43;;;;;;;6.03;3.30;;;;;;;;;;4956576;28;20946;-77
2023/06/28 11:44:11;;;;;;;7.47;3.90;;;;;;;;;;4956664;28;20451;-77
2023/06/28 11:46:38;;;;;;;9.63;3.40;;;;;;;;;;4956269;28;20518;-77
2023/06/28 11:49:04;;;;;;;6.13;3.37;;;;;;;;;;4938833;29;20531;-77
2023/06/28 11:51:33;;;;;;;6.43;3.80;;;;;;;;;;4957337;28;20433;-77
2023/06/28 11:53:59;;;;;;;7.87;3.83;;;;;;;;;;4950643;28;20563;-77
2023/06/28 11:56:41;;;;;;;10.53;4.10;;;;;;;;;;4955224;28;20444;-77
2023/06/28 11:59:20;;;;;;;6.83;2.83;;;;;;;;;;4941855;28;20444;-77
2023/06/28 12:01:47;;;;;;;5.97;2.90;;;;;;;;;;4955555;28;20440;-77
2023/06/28 12:04:19;;;;;;;9.80;3.30;;;;;;;;;;4955700;28;20440;-77
2023/06/28 12:06:46;;;;;;;5.83;3.50;;;;;;;;;;4922275;28;20483;-77
2023/06/28 12:09:27;;;;;;;6.60;2.93;;;;;;;;;;4956114;28;20456;-77
2023/06/28 12:11:59;;;;;;;12.03;4.10;;;;;;;;;;4955633;28;20471;-77
2023/06/28 12:14:27;;;;;;;4.90;3.13;;;;;;;;;;4939101;29;20421;-77
2023/06/28 12:16:53;;;;;;;4.73;2.80;;;;;;;;;;4956045;28;20455;-77
2023/06/28 12:19:20;;;;;;;7.63;3.50;;;;;;;;;;4955476;28;20411;-77
2023/06/28 12:21:47;;;;;;;8.97;3.40;;;;;;;;;;4955691;28;20432;-77
2023/06/28 12:24:26;;;;;;;6.57;3.40;;;;;;;;;;4955479;28;20432;-77
2023/06/28 12:26:54;;;;;;;5.97;3.40;;;;;;;;;;4954944;28;20964;-77
2023/06/28 12:29:20;;;;;;;7.10;3.33;;;;;;;;;;4938407;29;20451;-77
2023/06/28 12:31:47;;;;;;;5.70;2.80;;;;;;;;;;4953561;28;20424;-78
2023/06/28 12:34:23;;;;;;;8.10;2.70;;;;;;;;;;4955011;28;20450;-77
2023/06/28 12:36:52;;;;;;;7.07;3.13;;;;;;;;;;4953665;28;20440;-77
2023/06/28 12:39:21;;;;;;;5.47;3.20;;;;;;;;;;4953347;28;20451;-77
2023/06/28 12:42:04;;;;;;;7.50;3.47;;;;;;;;;;4959342;28;20514;-77
2023/06/28 12:44:30;;;;;;;7.70;3.00;;;;;;;;;;4959046;28;20456;-77
2023/06/28 12:46:56;;;;;;;6.00;3.27;;;;;;;;;;4959358;28;20472;-77
2023/06/28 12:49:23;;;;;;;9.07;3.53;;;;;;;;;;4959180;28;20440;-77
2023/06/28 12:51:49;;;;;;;6.23;2.83;;;;;;;;;;4957671;28;20431;-77
2023/06/28 12:54:15;;;;;;;9.13;3.00;;;;;;;;;;4959368;29;20511;-77
2023/06/28 12:56:41;;;;;;;8.30;3.87;;;;;;;;;;4959519;29;20428;-77
2023/06/28 12:59:07;;;;;;;7.37;3.10;;;;;;;;;;4958991;28;20527;-77
2023/06/28 13:01:33;;;;;;;5.40;2.60;;;;;;;;;;4959124;29;20444;-77
2023/06/28 13:04:00;;;;;;;5.70;3.07;;;;;;;;;;4959232;28;20409;-77
2023/06/28 13:06:26;;;;;;;5.80;2.93;;;;;;;;;;4964390;28;20499;-77
2023/06/28 13:08:52;;;;;;;7.33;3.33;;;;;;;;;;4965451;28;20479;-77
2023/06/28 13:11:18;;;;;;;5.77;2.80;;;;;;;;;;4957132;28;20426;-78
2023/06/28 13:13:47;;;;;;;8.60;2.80;;;;;;;;;;4941239;29;21033;-77
2023/06/28 13:16:13;;;;;;;9.80;3.57;;;;;;;;;;4941550;29;20828;-77
2023/06/28 13:18:39;;;;;;;7.73;3.40;;;;;;;;;;4941085;29;20408;-78
2023/06/28 13:21:06;;;;;;;5.70;3.57;;;;;;;;;;4925446;29;20934;-77
2023/06/28 13:23:32;;;;;;;6.47;2.80;;;;;;;;;;4925688;29;20506;-78
2023/06/28 13:25:59;;;;;;;5.30;2.80;;;;;;;;;;4958231;29;20467;-78
2023/06/28 13:28:25;;;;;;;8.27;3.37;;;;;;;;;;4941607;29;20451;-78
2023/06/28 13:30:51;;;;;;;4.30;3.10;;;;;;;;;;4941033;29;20444;-77
2023/06/28 13:33:17;;;;;;;5.80;2.53;;;;;;;;;;4941101;29;20781;-78
2023/06/28 13:35:43;;;;;;;8.47;3.23;;;;;;;;;;4958035;29;20416;-77
2023/06/28 13:38:09;;;;;;;7.73;3.10;;;;;;;;;;4940984;29;20931;-78
2023/06/28 13:40:35;;;;;;;8.10;3.87;;;;;;;;;;4940980;29;20434;-77
2023/06/28 13:43:04;;;;;;;5.67;3.00;;;;;;;;;;4957721;29;20756;-78
2023/06/28 13:45:30;;;;;;;4.80;3.20;;;;;;;;;;4941100;29;20475;-77
2023/06/28 13:47:56;;;;;;;5.83;3.60;;;;;;;;;;4924839;29;20403;-78
2023/06/28 13:50:23;;;;;;;7.87;3.97;;;;;;;;;;4940220;29;20782;-78
2023/06/28 13:52:49;;;;;;;7.50;3.10;;;;;;;;;;4940471;29;20412;-78
2023/06/28 13:55:15;;;;;;;9.53;3.53;;;;;;;;;;4941339;29;20473;-78
2023/06/28 13:57:42;;;;;;;6.10;3.40;;;;;;;;;;4925274;29;20460;-78
2023/06/28 14:00:08;;;;;;;7.77;3.17;;;;;;;;;;4940482;29;20832;-78
2023/06/28 14:02:34;;;;;;;7.23;3.90;;;;;;;;;;4940497;29;20420;-78
2023/06/28 14:05:00;;;;;;;9.77;3.60;;;;;;;;;;4940625;29;20705;-78
2023/06/28 14:07:26;;;;;;;10.03;3.30;;;;;;;;;;4940893;29;20480;-77
2023/06/28 14:09:52;;;;;;;6.67;3.80;;;;;;;;;;4924531;29;20432;-78
2023/06/28 14:12:18;;;;;;;6.40;3.83;;;;;;;;;;4925002;29;20927;-78
2023/06/28 14:14:44;;;;;;;4.27;3.13;;;;;;;;;;4940552;29;20416;-75
2023/06/28 14:17:10;;;;;;;7.63;3.30;;;;;;;;;;4957292;29;20409;-78
2023/06/28 14:19:36;;;;;;;9.10;3.17;;;;;;;;;;4940051;29;20520;-78
2023/06/28 14:22:02;;;;;;;9.40;3.80;;;;;;;;;;4957579;29;20451;-78
2023/06/28 14:24:28;;;;;;;8.10;3.37;;;;;;;;;;4957226;29;20417;-74
2023/06/28 14:26:54;;;;;;;4.57;3.07;;;;;;;;;;4957306;29;20468;-78
2023/06/28 14:29:20;;;;;;;9.67;3.60;;;;;;;;;;4940139;29;20840;-78
2023/06/28 14:31:46;;;;;;;6.50;3.27;;;;;;;;;;4940077;29;20432;-78
2023/06/28 14:34:12;;;;;;;9.57;3.63;;;;;;;;;;4957033;29;20416;-74
2023/06/28 14:36:38;;;;;;;5.50;2.97;;;;;;;;;;4956944;29;20423;-74
2023/06/28 14:39:04;;;;;;;6.80;2.80;;;;;;;;;;4956816;29;20415;-77